Time;durP1;ratioP1;P1;durP2;ratioP2;P2;SDS_P1;SDS_P2;PMS_P1;PMS_P2;Temp;Humidity;BMP_temperature;BMP_pressure;BME280_temperature;BME280_humidity;BME280_pressure;Samples;Min_cycle;Max_cycle;Signal;HPM_P1;HPM_P2
2024/04/22 00:01:37;;;;;;;2.45;0.98;;;22.50;46.40;;;;;;5428292;26;20549;-65
2024/04/22 00:04:03;;;;;;;2.10;0.90;;;22.50;46.40;;;;;;5429624;26;20018;-65
2024/04/22 00:06:30;;;;;;;1.60;0.73;;;22.40;46.30;;;;;;5428899;26;19995;-64
2024/04/22 00:08:55;;;;;;;1.42;0.80;;;22.40;46.30;;;;;;5429289;26;20068;-64
2024/04/22 00:11:21;;;;;;;1.20;0.90;;;22.40;46.30;;;;;;5428021;26;20630;-65
2024/04/22 00:13:47;;;;;;;1.25;0.80;;;22.40;46.30;;;;;;5425234;26;20034;-65
2024/04/22 00:16:12;;;;;;;1.38;0.80;;;22.40;46.30;;;;;;5431774;26;20340;-65
2024/04/22 00:18:38;;;;;;;1.52;0.70;;;22.40;46.30;;;;;;5424046;26;19999;-65
2024/04/22 00:21:04;;;;;;;0.93;0.80;;;22.30;46.80;;;;;;5427342;26;20007;-65
2024/04/22 00:23:29;;;;;;;1.25;0.70;;;22.30;46.30;;;;;;5427309;26;20026;-64
2024/04/22 00:25:55;;;;;;;1.52;0.90;;;22.30;46.30;;;;;;5424526;26;20175;-64
2024/04/22 00:28:20;;;;;;;1.13;0.80;;;22.30;46.30;;;;;;5430354;26;20042;-65
2024/04/22 00:30:46;;;;;;;1.67;0.90;;;22.30;46.30;;;;;;5431797;26;20431;-63
2024/04/22 00:33:12;;;;;;;1.13;0.80;;;22.30;46.30;;;;;;5428568;26;20611;-63
2024/04/22 00:35:38;;;;;;;1.25;0.80;;;22.30;46.30;;;;;;5429524;26;20010;-63
2024/04/22 00:38:04;;;;;;;1.17;0.80;;;22.30;46.30;;;;;;5432588;26;20062;-63
2024/04/22 00:40:30;;;;;;;1.58;1.02;;;22.30;46.30;;;;;;5431586;26;20011;-65
2024/04/22 00:42:55;;;;;;;1.20;0.77;;;22.30;46.30;;;;;;5431217;26;20002;-64
2024/04/22 00:45:21;;;;;;;1.00;0.70;;;22.20;46.20;;;;;;5429565;26;20003;-65
2024/04/22 00:47:47;;;;;;;1.27;0.80;;;22.20;46.20;;;;;;5427483;26;20010;-65
2024/04/22 00:50:13;;;;;;;1.52;0.95;;;22.20;46.20;;;;;;5425260;26;20044;-65
2024/04/22 00:52:41;;;;;;;1.25;0.80;;;22.20;46.20;;;;;;5428763;26;20014;-65
2024/04/22 00:55:08;;;;;;;0.60;0.60;;;22.20;46.20;;;;;;5425352;26;20470;-65
2024/04/22 00:57:37;;;;;;;1.00;0.70;;;22.20;46.20;;;;;;5430565;26;20039;-65
2024/04/22 01:00:03;;;;;;;0.85;0.77;;;22.20;46.20;;;;;;5430965;26;20002;-65
2024/04/22 01:02:29;;;;;;;1.25;0.80;;;22.20;46.20;;;;;;5427383;26;20139;-66
2024/04/22 01:04:56;;;;;;;1.38;0.80;;;22.20;46.20;;;;;;5424504;26;20344;-65
2024/04/22 01:07:22;;;;;;;1.60;0.80;;;22.10;46.20;;;;;;5429641;26;20464;-66
2024/04/22 01:09:48;;;;;;;1.08;0.80;;;22.10;46.20;;;;;;5432675;26;20102;-65
2024/04/22 01:12:13;;;;;;;1.08;0.80;;;22.10;46.20;;;;;;5427705;26;20122;-65
2024/04/22 01:14:39;;;;;;;1.13;0.70;;;22.10;46.20;;;;;;5432053;26;20435;-65
2024/04/22 01:17:05;;;;;;;1.50;0.90;;;22.10;46.10;;;;;;5426573;26;20879;-65
2024/04/22 01:19:30;;;;;;;1.02;0.70;;;22.10;46.20;;;;;;5422326;26;20113;-65
2024/04/22 01:21:56;;;;;;;0.80;0.70;;;22.10;46.10;;;;;;5426633;26;20045;-65
2024/04/22 01:24:22;;;;;;;1.00;0.70;;;22.10;46.20;;;;;;5429980;26;20013;-65
2024/04/22 01:26:49;;;;;;;1.00;0.80;;;22.10;46.20;;;;;;5428903;26;20036;-65
2024/04/22 01:29:14;;;;;;;1.42;0.80;;;22.00;46.10;;;;;;5426049;26;20023;-64
2024/04/22 01:31:40;;;;;;;0.98;0.70;;;22.00;46.10;;;;;;5422982;26;20011;-65
2024/04/22 01:34:06;;;;;;;1.67;0.90;;;22.00;46.10;;;;;;5425894;26;19999;-65
2024/04/22 01:36:31;;;;;;;2.47;0.98;;;22.00;46.60;;;;;;5423773;26;20023;-64
2024/04/22 01:38:57;;;;;;;1.02;0.73;;;22.00;46.10;;;;;;5427816;26;19995;-65
2024/04/22 01:41:23;;;;;;;1.40;0.90;;;22.00;46.10;;;;;;5426990;26;20010;-64
2024/04/22 01:43:49;;;;;;;0.75;0.68;;;22.00;46.10;;;;;;5427608;26;19999;-65
2024/04/22 01:46:14;;;;;;;1.33;0.63;;;22.00;46.10;;;;;;5427493;26;20002;-65
2024/04/22 01:48:40;;;;;;;1.48;0.70;;;22.00;46.10;;;;;;5420399;26;20005;-65
2024/04/22 01:51:05;;;;;;;0.73;0.60;;;22.00;46.10;;;;;;5428414;26;20021;-63
2024/04/22 01:53:31;;;;;;;1.42;0.80;;;21.90;46.10;;;;;;5428336;26;20459;-63
2024/04/22 01:55:57;;;;;;;1.30;0.85;;;21.90;46.10;;;;;;5426768;26;20539;-63
2024/04/22 01:58:23;;;;;;;1.00;0.73;;;21.90;46.10;;;;;;5424068;26;20014;-63
2024/04/22 02:00:49;;;;;;;1.10;0.88;;;21.90;46.10;;;;;;5424136;26;20008;-63
2024/04/22 02:03:14;;;;;;;1.00;0.70;;;21.90;46.10;;;;;;5422910;26;20063;-63
2024/04/22 02:05:43;;;;;;;1.25;0.80;;;21.90;46.10;;;;;;5426142;26;19995;-63
2024/04/22 02:08:09;;;;;;;1.10;0.80;;;21.90;46.10;;;;;;5427780;26;20496;-63
2024/04/22 02:10:34;;;;;;;1.30;0.88;;;21.80;46.10;;;;;;5429759;26;20004;-63
2024/04/22 02:13:03;;;;;;;0.73;0.70;;;21.80;46.10;;;;;;5427641;26;20003;-63
2024/04/22 02:15:29;;;;;;;1.20;0.70;;;21.80;46.10;;;;;;5422556;26;20509;-63
2024/04/22 02:17:55;;;;;;;1.50;1.00;;;21.80;46.10;;;;;;5432457;26;20011;-63
2024/04/22 02:20:21;;;;;;;1.63;0.80;;;21.80;46.10;;;;;;5423286;26;20033;-63
2024/04/22 02:22:46;;;;;;;0.77;0.70;;;21.80;46.10;;;;;;5432537;26;20079;-63
2024/04/22 02:25:12;;;;;;;1.13;0.70;;;21.80;46.10;;;;;;5433188;26;21078;-63
2024/04/22 02:27:38;;;;;;;1.00;0.80;;;21.80;46.10;;;;;;5431948;26;20076;-63
2024/04/22 02:30:04;;;;;;;1.20;0.80;;;21.80;46.20;;;;;;5428565;26;19999;-63
2024/04/22 02:32:29;;;;;;;1.10;0.88;;;21.70;46.10;;;;;;5428035;26;20007;-63
2024/04/22 02:34:55;;;;;;;0.70;0.70;;;21.70;46.10;;;;;;5428220;26;20000;-63
2024/04/22 02:37:21;;;;;;;1.30;0.73;;;21.80;46.20;;;;;;5430855;26;20010;-63
2024/04/22 02:39:46;;;;;;;0.80;0.70;;;21.70;46.10;;;;;;5432562;26;20006;-63
2024/04/22 02:42:12;;;;;;;1.50;0.80;;;21.70;46.70;;;;;;5427442;26;20126;-63
2024/04/22 02:44:37;;;;;;;1.90;0.80;;;21.70;46.10;;;;;;5431016;26;20445;-63
2024/04/22 02:47:04;;;;;;;1.42;0.70;;;21.70;46.10;;;;;;5429463;26;20010;-63
2024/04/22 02:49:30;;;;;;;1.05;0.68;;;21.70;46.10;;;;;;5429299;26;20076;-63
2024/04/22 02:51:55;;;;;;;0.90;0.70;;;21.70;46.10;;;;;;5431588;26;19999;-61
2024/04/22 02:54:25;;;;;;;0.95;0.70;;;21.70;46.10;;;;;;5426517;26;20087;-61
2024/04/22 02:56:51;;;;;;;0.75;0.70;;;21.70;46.20;;;;;;5428629;26;19995;-61
2024/04/22 02:59:16;;;;;;;1.30;0.90;;;21.60;46.10;;;;;;5427660;26;20010;-62
2024/04/22 03:01:42;;;;;;;0.65;0.55;;;21.70;46.20;;;;;;5444447;26;20448;-65
2024/04/22 03:04:08;;;;;;;0.88;0.60;;;21.70;46.20;;;;;;5426668;26;20376;-65
2024/04/22 03:06:33;;;;;;;1.33;0.70;;;21.60;46.10;;;;;;5433017;26;19999;-65
2024/04/22 03:08:59;;;;;;;0.73;0.60;;;21.60;46.10;;;;;;5430528;26;20641;-65
2024/04/22 03:11:25;;;;;;;0.98;0.70;;;21.60;46.10;;;;;;5429968;26;20014;-64
2024/04/22 03:13:51;;;;;;;0.75;0.70;;;21.60;46.20;;;;;;5429650;26;20000;-65
2024/04/22 03:16:17;;;;;;;1.65;0.70;;;21.60;46.10;;;;;;5431615;26;19992;-66
2024/04/22 03:18:46;;;;;;;0.63;0.60;;;21.60;46.20;;;;;;5428540;26;20509;-65
2024/04/22 03:21:11;;;;;;;0.77;0.70;;;21.60;46.20;;;;;;5432130;26;19995;-65
2024/04/22 03:23:37;;;;;;;1.05;0.70;;;21.60;46.20;;;;;;5432097;26;20013;-65
2024/04/22 03:26:03;;;;;;;1.35;0.57;;;21.60;46.20;;;;;;5431615;26;19999;-65
2024/04/22 03:28:29;;;;;;;0.90;0.70;;;21.60;46.20;;;;;;5431358;26;19999;-64
2024/04/22 03:30:54;;;;;;;0.98;0.63;;;21.60;46.20;;;;;;5428763;26;19999;-64
2024/04/22 03:33:20;;;;;;;1.38;0.88;;;21.50;46.70;;;;;;5431238;26;20739;-65
2024/04/22 03:35:46;;;;;;;1.10;0.70;;;21.50;46.20;;;;;;5427489;26;20077;-64
2024/04/22 03:38:13;;;;;;;0.95;0.70;;;21.50;46.20;;;;;;5428215;26;19999;-64
2024/04/22 03:40:39;;;;;;;0.52;0.50;;;21.50;46.20;;;;;;5429368;26;20485;-64
2024/04/22 03:43:05;;;;;;;0.93;0.60;;;21.50;46.20;;;;;;5430020;26;20011;-65
2024/04/22 03:45:30;;;;;;;0.80;0.60;;;21.50;46.20;;;;;;5424108;26;20157;-64
2024/04/22 03:50:40;;;;;;;0.90;0.70;;;21.50;46.20;;;;;;5426288;26;20090;-65
2024/04/22 03:53:07;;;;;;;0.60;0.60;;;21.50;46.20;;;;;;5429628;26;20011;-64
2024/04/22 03:55:33;;;;;;;0.63;0.60;;;21.50;46.20;;;;;;5431587;26;20010;-64
2024/04/22 03:57:59;;;;;;;1.05;0.70;;;21.50;46.20;;;;;;5431236;26;20003;-63
2024/04/22 04:00:24;;;;;;;1.30;0.70;;;21.50;46.20;;;;;;5425832;26;20354;-61
2024/04/22 04:02:50;;;;;;;0.68;0.60;;;21.50;46.20;;;;;;5431196;26;20458;-61
2024/04/22 04:05:17;;;;;;;0.70;0.68;;;21.50;46.20;;;;;;5425343;26;20509;-59
2024/04/22 04:07:42;;;;;;;0.60;0.60;;;21.50;46.20;;;;;;5429929;26;20013;-60
2024/04/22 04:10:08;;;;;;;0.95;0.60;;;21.40;46.20;;;;;;5429576;26;20451;-61
2024/04/22 04:12:34;;;;;;;1.08;0.70;;;21.50;46.20;;;;;;5427891;26;19995;-62
2024/04/22 04:14:59;;;;;;;0.75;0.60;;;21.40;46.20;;;;;;5431012;26;20533;-62
2024/04/22 04:17:25;;;;;;;0.95;0.70;;;21.40;46.20;;;;;;5429263;26;20127;-62
2024/04/22 04:19:50;;;;;;;0.60;0.60;;;21.40;46.20;;;;;;5426473;26;20002;-62
2024/04/22 04:22:16;;;;;;;0.70;0.60;;;21.40;46.20;;;;;;5430195;26;20075;-62
2024/04/22 04:24:42;;;;;;;0.90;0.60;;;21.40;46.30;;;;;;5432321;26;20072;-61
2024/04/22 04:27:07;;;;;;;0.60;0.60;;;21.40;46.30;;;;;;5428000;26;19999;-62
2024/04/22 04:29:33;;;;;;;1.40;0.70;;;21.40;46.30;;;;;;5427989;26;20000;-62
2024/04/22 04:31:58;;;;;;;0.95;0.60;;;21.40;46.30;;;;;;5430973;26;20014;-62
2024/04/22 04:34:24;;;;;;;0.65;0.63;;;21.40;46.30;;;;;;5426755;26;19999;-62
2024/04/22 04:36:50;;;;;;;0.95;0.70;;;21.40;46.30;;;;;;5426927;26;20010;-62
2024/04/22 04:39:15;;;;;;;0.82;0.68;;;21.40;46.30;;;;;;5426094;26;20014;-61
2024/04/22 04:41:41;;;;;;;1.10;0.80;;;21.40;46.30;;;;;;5424383;26;20004;-62
2024/04/22 04:44:07;;;;;;;0.77;0.60;;;21.40;46.30;;;;;;5422222;26;20011;-61
2024/04/22 04:46:33;;;;;;;1.13;0.70;;;21.40;46.30;;;;;;5427819;26;20018;-63
2024/04/22 04:48:59;;;;;;;1.02;0.80;;;21.40;46.30;;;;;;5427671;26;20481;-61
2024/04/22 04:51:24;;;;;;;1.25;0.77;;;21.30;46.30;;;;;;5426330;26;20126;-61
2024/04/22 04:53:50;;;;;;;0.60;0.60;;;21.30;46.30;;;;;;5426980;26;20071;-61
2024/04/22 04:56:16;;;;;;;0.70;0.70;;;21.30;46.30;;;;;;5424607;26;20004;-62
2024/04/22 04:58:41;;;;;;;3.22;0.93;;;21.30;46.30;;;;;;5426412;26;19999;-62
2024/04/22 05:01:07;;;;;;;0.98;0.70;;;21.30;46.30;;;;;;5426806;26;19999;-62
2024/04/22 05:03:32;;;;;;;0.80;0.70;;;21.30;46.30;;;;;;5426074;26;20228;-61
2024/04/22 05:05:59;;;;;;;0.70;0.60;;;21.30;46.30;;;;;;5422411;26;20007;-61
2024/04/22 05:08:25;;;;;;;0.77;0.60;;;21.30;46.40;;;;;;5425960;26;20076;-61
2024/04/22 05:10:50;;;;;;;1.00;0.65;;;21.30;46.40;;;;;;5430832;26;20459;-62
2024/04/22 05:13:16;;;;;;;1.25;0.80;;;21.30;46.40;;;;;;5428574;26;20339;-62
2024/04/22 05:15:42;;;;;;;1.15;0.70;;;21.30;46.50;;;;;;5426794;26;19996;-62
2024/04/22 05:18:07;;;;;;;1.52;0.70;;;21.30;46.50;;;;;;5424318;26;20013;-63
2024/04/22 05:20:33;;;;;;;1.52;0.80;;;21.30;46.50;;;;;;5426389;26;20022;-59
2024/04/22 05:22:59;;;;;;;1.88;0.90;;;21.30;46.60;;;;;;5426705;26;19999;-64
2024/04/22 05:25:24;;;;;;;2.47;0.95;;;21.30;46.60;;;;;;5427493;26;20073;-64
2024/04/22 05:27:50;;;;;;;1.25;0.85;;;21.30;46.70;;;;;;5423092;26;20470;-64
2024/04/22 05:30:16;;;;;;;1.45;0.80;;;21.30;46.70;;;;;;5424278;26;20003;-63
2024/04/22 05:32:42;;;;;;;0.82;0.63;;;21.30;46.80;;;;;;5430152;26;19999;-64
2024/04/22 05:37:52;;;;;;;2.63;0.80;;;21.30;46.80;;;;;;5428306;26;20079;-63
2024/04/22 05:40:17;;;;;;;1.55;0.75;;;21.20;46.70;;;;;;5428701;26;20007;-64
2024/04/22 05:42:43;;;;;;;1.92;1.00;;;21.30;47.00;;;;;;5441810;26;20075;-64
2024/04/22 05:45:09;;;;;;;1.55;0.90;;;21.30;47.10;;;;;;5425461;26;19999;-63
2024/04/22 05:47:34;;;;;;;1.42;0.90;;;21.30;47.10;;;;;;5429738;26;20038;-64
2024/04/22 05:50:02;;;;;;;2.25;1.05;;;21.40;47.20;;;;;;5421428;26;20002;-63
2024/04/22 05:52:27;;;;;;;1.52;0.90;;;21.40;47.10;;;;;;5429458;26;19998;-63
2024/04/22 05:54:53;;;;;;;3.05;1.05;;;21.50;47.10;;;;;;5432969;26;20017;-63
2024/04/22 05:57:19;;;;;;;3.13;1.10;;;21.50;47.00;;;;;;5430039;26;20003;-63
2024/04/22 05:59:44;;;;;;;3.05;1.10;;;21.60;47.00;;;;;;5433688;26;19999;-63
2024/04/22 06:02:10;;;;;;;2.13;1.60;;;21.60;47.00;;;;;;5433873;26;20014;-63
2024/04/22 06:04:36;;;;;;;2.78;1.20;;;21.70;46.80;;;;;;5431855;26;20015;-63
2024/04/22 06:07:03;;;;;;;3.97;1.13;;;21.70;46.80;;;;;;5426008;26;20000;-63
2024/04/22 06:09:29;;;;;;;3.50;1.40;;;21.70;46.70;;;;;;5433566;26;19999;-64
2024/04/22 06:11:54;;;;;;;3.47;1.17;;;21.80;46.70;;;;;;5432667;26;20509;-63
2024/04/22 06:14:20;;;;;;;2.15;1.10;;;21.80;46.60;;;;;;5428424;26;20010;-63
2024/04/22 06:16:48;;;;;;;3.05;1.20;;;21.90;46.60;;;;;;5429678;26;20013;-63
2024/04/22 06:19:14;;;;;;;2.85;1.30;;;21.90;46.50;;;;;;5431890;26;20453;-63
2024/04/22 06:21:40;;;;;;;2.88;1.33;;;21.90;46.50;;;;;;5425341;26;19995;-62
2024/04/22 06:24:05;;;;;;;2.53;1.10;;;21.90;46.50;;;;;;5432231;26;20011;-62
2024/04/22 06:26:31;;;;;;;2.95;1.20;;;21.90;46.40;;;;;;5436004;26;19995;-62
2024/04/22 06:28:57;;;;;;;4.18;1.73;;;22.00;46.50;;;;;;5433508;26;20318;-62
2024/04/22 06:31:23;;;;;;;3.28;1.15;;;22.00;46.40;;;;;;5433027;26;20000;-64
2024/04/22 06:33:48;;;;;;;2.67;1.20;;;22.00;46.40;;;;;;5432818;26;19998;-62
2024/04/22 06:36:14;;;;;;;3.85;1.45;;;21.90;46.30;;;;;;5428678;26;20003;-62
2024/04/22 06:38:42;;;;;;;2.53;1.10;;;21.90;46.30;;;;;;5430371;26;20552;-62
2024/04/22 06:41:08;;;;;;;2.60;1.35;;;22.00;46.40;;;;;;5428968;26;20435;-62
2024/04/22 06:43:34;;;;;;;2.03;1.00;;;22.00;46.70;;;;;;5427262;26;19999;-62
2024/04/22 06:45:59;;;;;;;3.22;1.00;;;22.00;46.80;;;;;;5433957;26;19999;-62
2024/04/22 06:48:25;;;;;;;1.85;1.00;;;22.00;46.70;;;;;;5429864;26;19999;-62
2024/04/22 06:50:51;;;;;;;2.63;1.23;;;22.10;46.60;;;;;;5428656;26;20012;-62
2024/04/22 06:53:19;;;;;;;2.20;1.20;;;22.10;46.50;;;;;;5431472;26;20000;-62
2024/04/22 06:55:45;;;;;;;3.15;1.13;;;22.10;46.40;;;;;;5431413;26;20003;-62
2024/04/22 06:58:10;;;;;;;3.58;1.40;;;22.10;46.60;;;;;;5426112;26;20018;-62
2024/04/22 07:00:36;;;;;;;3.63;1.33;;;22.10;47.00;;;;;;5429195;26;20003;-62
2024/04/22 07:03:02;;;;;;;2.83;1.40;;;22.10;46.60;;;;;;5429722;26;20019;-62
2024/04/22 07:05:28;;;;;;;4.65;1.30;;;22.10;46.70;;;;;;5429572;26;19999;-62
2024/04/22 07:07:54;;;;;;;3.65;1.42;;;22.10;46.40;;;;;;5425793;26;20015;-62
2024/04/22 07:10:20;;;;;;;4.75;1.70;;;22.10;46.30;;;;;;5428995;26;20475;-61
2024/04/22 07:12:45;;;;;;;2.38;1.40;;;22.20;46.20;;;;;;5429497;26;20000;-61
2024/04/22 07:15:12;;;;;;;3.50;1.50;;;22.20;46.20;;;;;;5432987;26;20002;-62
2024/04/22 07:17:38;;;;;;;4.35;1.23;;;22.20;46.10;;;;;;5428719;26;20343;-62
2024/04/22 07:20:07;;;;;;;3.38;1.40;;;22.20;46.10;;;;;;5429988;26;20003;-62
2024/04/22 07:22:37;;;;;;;3.53;1.40;;;22.20;46.00;;;;;;5425632;26;20007;-62
2024/04/22 07:25:06;;;;;;;2.78;1.20;;;22.20;46.00;;;;;;5428995;26;19995;-61
2024/04/22 07:27:33;;;;;;;3.90;1.67;;;22.20;45.90;;;;;;5429115;26;20015;-61
2024/04/22 07:29:59;;;;;;;2.78;1.45;;;22.20;45.90;;;;;;5430167;26;20074;-62
2024/04/22 07:32:25;;;;;;;2.60;1.30;;;22.30;45.80;;;;;;5432092;26;20363;-62
2024/04/22 07:34:51;;;;;;;4.28;2.08;;;22.20;45.70;;;;;;5428012;26;19999;-62
2024/04/22 07:37:22;;;;;;;3.10;1.55;;;22.20;45.80;;;;;;5426813;26;20480;-62
2024/04/22 07:39:50;;;;;;;3.50;1.60;;;22.30;45.80;;;;;;5426992;26;20003;-62
2024/04/22 07:42:16;;;;;;;3.35;1.60;;;22.30;45.70;;;;;;5430021;26;19999;-62
2024/04/22 07:44:42;;;;;;;2.50;1.40;;;22.30;45.60;;;;;;5430057;26;19999;-62
2024/04/22 07:47:08;;;;;;;3.28;1.60;;;22.30;45.60;;;;;;5428555;26;20067;-61
2024/04/22 07:49:34;;;;;;;3.55;1.55;;;22.30;45.60;;;;;;5432586;26;20003;-62
2024/04/22 07:51:59;;;;;;;3.10;1.60;;;22.30;45.60;;;;;;5424409;26;20376;-62
2024/04/22 07:54:25;;;;;;;3.95;1.75;;;22.30;45.50;;;;;;5433814;26;20018;-63
2024/04/22 07:56:51;;;;;;;3.50;1.67;;;22.30;46.00;;;;;;5428714;26;19999;-62
2024/04/22 07:59:18;;;;;;;3.67;1.45;;;22.30;45.50;;;;;;5428442;26;20032;-62
2024/04/22 08:01:45;;;;;;;3.17;1.70;;;22.30;45.40;;;;;;5430805;26;20109;-62
2024/04/22 08:04:11;;;;;;;4.75;1.92;;;22.30;45.40;;;;;;5429049;26;20463;-63
2024/04/22 08:06:37;;;;;;;3.40;1.45;;;22.30;45.30;;;;;;5430759;26;20003;-63
2024/04/22 08:09:04;;;;;;;2.70;1.40;;;22.30;45.30;;;;;;5430183;26;20005;-63
2024/04/22 08:11:30;;;;;;;2.80;1.40;;;22.30;45.30;;;;;;5429907;26;19995;-62
2024/04/22 08:13:55;;;;;;;2.97;1.52;;;22.30;45.30;;;;;;5425905;26;20343;-62
2024/04/22 08:16:21;;;;;;;3.13;1.48;;;22.30;45.20;;;;;;5429481;26;20007;-62
2024/04/22 08:18:47;;;;;;;2.17;1.60;;;22.40;45.30;;;;;;5430742;26;20003;-65
2024/04/22 08:21:13;;;;;;;2.40;1.40;;;22.40;45.30;;;;;;5426564;26;20459;-64
2024/04/22 08:23:39;;;;;;;3.35;1.70;;;22.30;45.20;;;;;;5434263;26;20000;-61
2024/04/22 08:26:05;;;;;;;2.92;1.55;;;22.40;45.30;;;;;;5438664;26;20570;-58
2024/04/22 08:28:31;;;;;;;2.40;1.42;;;22.30;45.20;;;;;;5442898;26;19995;-60
2024/04/22 08:31:04;;;;;;;3.15;1.70;;;22.30;45.10;;;;;;5434611;26;19996;-61
2024/04/22 08:33:29;;;;;;;3.53;1.30;;;22.30;45.20;;;;;;5435751;26;20002;-61
2024/04/22 08:35:58;;;;;;;2.25;1.38;;;22.40;45.20;;;;;;5436289;26;20003;-61
2024/04/22 08:38:24;;;;;;;2.97;1.50;;;22.40;45.10;;;;;;5425551;26;20513;-61
2024/04/22 08:40:49;;;;;;;3.08;1.70;;;22.40;45.10;;;;;;5431562;26;20002;-61
2024/04/22 08:43:16;;;;;;;2.92;1.38;;;22.40;45.10;;;;;;5426782;26;20006;-61
2024/04/22 08:45:43;;;;;;;2.97;1.50;;;22.40;45.10;;;;;;5432380;26;20071;-61
2024/04/22 08:48:09;;;;;;;2.40;1.50;;;22.40;45.10;;;;;;5429828;26;20076;-64
2024/04/22 08:50:39;;;;;;;4.38;1.50;;;22.40;45.10;;;;;;5430371;26;20005;-62
2024/04/22 08:53:09;;;;;;;3.22;1.55;;;22.50;45.10;;;;;;5431898;26;20014;-61
2024/04/22 08:55:36;;;;;;;2.83;1.50;;;22.40;45.00;;;;;;5436540;26;20039;-63
2024/04/22 08:58:03;;;;;;;3.20;1.50;;;22.50;45.10;;;;;;5431512;26;20030;-63
2024/04/22 09:00:29;;;;;;;2.80;1.40;;;22.40;45.00;;;;;;5429035;26;19999;-65
2024/04/22 09:02:55;;;;;;;2.88;1.35;;;22.40;45.00;;;;;;5433218;26;20006;-65
2024/04/22 09:05:21;;;;;;;2.55;1.63;;;22.40;45.10;;;;;;5439492;26;20014;-65
2024/04/22 09:08:03;;;;;;;2.83;1.55;;;22.40;45.10;;;;;;5425250;26;20027;-66
2024/04/22 09:10:30;;;;;;;2.53;1.40;;;22.40;45.10;;;;;;5431961;26;20499;-64
2024/04/22 09:12:57;;;;;;;2.05;1.33;;;22.40;45.10;;;;;;5443982;26;20053;-65
2024/04/22 09:15:22;;;;;;;3.10;1.40;;;22.40;45.00;;;;;;5433293;26;20048;-65
2024/04/22 09:17:48;;;;;;;2.88;1.30;;;22.50;45.10;;;;;;5429187;26;20026;-65
2024/04/22 09:20:25;;;;;;;2.10;1.30;;;22.50;45.10;;;;;;5438680;26;20077;-65
2024/04/22 09:22:51;;;;;;;2.25;1.20;;;22.50;45.20;;;;;;5431114;26;20075;-65
2024/04/22 09:25:18;;;;;;;2.05;1.25;;;22.40;45.10;;;;;;5432083;26;19998;-65
2024/04/22 09:27:48;;;;;;;2.35;1.20;;;22.50;45.10;;;;;;5438961;26;20010;-64
2024/04/22 09:30:16;;;;;;;2.50;1.27;;;22.50;45.10;;;;;;5428498;26;20021;-65
2024/04/22 09:32:48;;;;;;;2.60;1.40;;;22.50;45.50;;;;;;5436564;26;20007;-64
2024/04/22 09:35:22;;;;;;;2.92;1.42;;;22.50;45.50;;;;;;5438583;26;20028;-64
2024/04/22 09:37:50;;;;;;;1.92;1.30;;;22.50;44.90;;;;;;5435935;26;20008;-64
2024/04/22 09:40:17;;;;;;;2.38;1.38;;;22.50;44.90;;;;;;5439362;26;20388;-64
2024/04/22 09:42:44;;;;;;;1.90;1.17;;;22.50;44.90;;;;;;5430198;26;20072;-65
2024/04/22 09:45:11;;;;;;;2.83;1.27;;;22.50;44.80;;;;;;5433245;26;20002;-64
2024/04/22 09:47:39;;;;;;;1.80;1.10;;;22.50;44.80;;;;;;5437790;26;20040;-65
2024/04/22 09:50:06;;;;;;;1.50;1.00;;;22.50;44.80;;;;;;5427816;26;19992;-65
2024/04/22 09:52:35;;;;;;;1.67;1.10;;;22.50;44.80;;;;;;5427337;26;20076;-64
2024/04/22 09:55:02;;;;;;;1.73;1.10;;;22.60;44.70;;;;;;5433420;26;20014;-65
2024/04/22 09:57:30;;;;;;;1.67;1.05;;;22.60;44.70;;;;;;5429987;26;20037;-64
2024/04/22 09:59:57;;;;;;;1.30;0.90;;;22.60;44.70;;;;;;5434116;26;20003;-63
2024/04/22 10:02:23;;;;;;;1.92;1.00;;;22.60;44.80;;;;;;5427491;26;20004;-63
2024/04/22 10:04:49;;;;;;;2.00;1.00;;;22.60;44.90;;;;;;5430897;26;20002;-64
2024/04/22 10:07:14;;;;;;;2.03;1.00;;;22.60;45.40;;;;;;5428960;26;19999;-63
2024/04/22 10:09:40;;;;;;;2.40;1.20;;;22.60;44.90;;;;;;5427296;26;20011;-62
2024/04/22 10:12:10;;;;;;;2.97;1.00;;;22.60;44.90;;;;;;5422656;26;20003;-63
2024/04/22 10:14:36;;;;;;;2.45;0.98;;;22.60;44.90;;;;;;5428944;26;20076;-64
2024/04/22 10:17:03;;;;;;;2.00;1.02;;;22.60;44.80;;;;;;5430144;26;20010;-63
2024/04/22 10:19:33;;;;;;;3.97;1.10;;;22.60;44.70;;;;;;5427048;26;20447;-63
2024/04/22 10:22:04;;;;;;;1.40;1.10;;;22.60;44.80;;;;;;5419460;26;19999;-63
2024/04/22 10:24:34;;;;;;;1.63;0.98;;;22.70;44.70;;;;;;5429352;26;20511;-63
2024/04/22 10:27:05;;;;;;;2.10;1.10;;;22.70;44.70;;;;;;5425613;26;20007;-63
2024/04/22 10:29:31;;;;;;;1.75;1.05;;;22.70;44.70;;;;;;5423861;26;20034;-63
2024/04/22 10:31:57;;;;;;;1.35;1.00;;;22.70;44.70;;;;;;5427164;26;20002;-63
2024/04/22 10:34:22;;;;;;;1.95;1.05;;;22.70;44.50;;;;;;5427891;26;20071;-63
2024/04/22 10:36:48;;;;;;;1.77;1.02;;;22.70;44.50;;;;;;5424123;26;20003;-64
2024/04/22 10:39:13;;;;;;;2.15;1.05;;;22.70;44.60;;;;;;5424773;26;20024;-63
2024/04/22 10:41:39;;;;;;;2.72;1.10;;;22.70;44.60;;;;;;5429991;26;20003;-62
2024/04/22 10:44:05;;;;;;;3.10;1.08;;;22.70;44.60;;;;;;5435332;26;20011;-63
2024/04/22 10:46:30;;;;;;;2.28;1.20;;;22.70;44.50;;;;;;5430716;26;20394;-63
2024/04/22 10:48:56;;;;;;;1.75;1.00;;;22.80;44.60;;;;;;5428213;26;20439;-63
2024/04/22 10:51:22;;;;;;;1.60;1.00;;;22.80;44.60;;;;;;5427691;26;20323;-63
2024/04/22 10:53:48;;;;;;;1.67;1.00;;;22.80;44.60;;;;;;5425697;26;20075;-63
2024/04/22 10:56:14;;;;;;;1.50;1.00;;;22.80;44.50;;;;;;5432190;26;20010;-63
2024/04/22 10:58:40;;;;;;;1.52;1.00;;;22.80;44.50;;;;;;5429139;26;20014;-63
2024/04/22 11:01:06;;;;;;;2.60;1.70;;;22.70;44.50;;;;;;5427175;26;20003;-63
2024/04/22 11:03:32;;;;;;;5.18;3.50;;;22.80;44.50;;;;;;5431058;26;19999;-63
2024/04/22 11:06:04;;;;;;;12.68;10.02;;;22.80;44.50;;;;;;5429029;26;20429;-64
2024/04/22 11:08:30;;;;;;;25.83;21.40;;;22.70;44.50;;;;;;5426851;26;20031;-63
2024/04/22 11:10:57;;;;;;;35.30;28.92;;;22.80;44.50;;;;;;5440468;26;19995;-60
2024/04/22 11:13:24;;;;;;;36.70;29.95;;;22.70;44.50;;;;;;5431250;26;20035;-59
2024/04/22 11:15:49;;;;;;;34.28;27.55;;;22.80;44.40;;;;;;5432025;26;19995;-61
2024/04/22 11:18:18;;;;;;;33.22;27.48;;;22.80;44.40;;;;;;5431355;26;20134;-59
2024/04/22 11:20:44;;;;;;;33.85;27.45;;;22.80;44.30;;;;;;5430967;26;20000;-60
2024/04/22 11:23:09;;;;;;;35.65;27.70;;;22.80;44.30;;;;;;5430401;26;20067;-60
2024/04/22 11:25:35;;;;;;;34.55;29.05;;;22.80;44.20;;;;;;5427464;26;20448;-60
2024/04/22 11:28:02;;;;;;;33.83;27.45;;;22.80;44.20;;;;;;5434240;26;20014;-61
2024/04/22 11:30:28;;;;;;;30.77;25.85;;;22.80;44.20;;;;;;5429894;26;20069;-60
2024/04/22 11:32:54;;;;;;;31.17;26.35;;;22.80;44.20;;;;;;5428877;26;20011;-61
2024/04/22 11:35:19;;;;;;;31.98;25.73;;;22.80;44.30;;;;;;5426782;26;19995;-60
2024/04/22 11:37:45;;;;;;;30.02;24.67;;;22.80;44.30;;;;;;5426973;26;20009;-61
2024/04/22 11:40:11;;;;;;;30.52;24.98;;;22.80;44.40;;;;;;5429397;26;20006;-60
2024/04/22 11:42:37;;;;;;;28.77;24.42;;;22.70;44.40;;;;;;5431287;26;20002;-61
2024/04/22 11:45:04;;;;;;;31.25;24.15;;;22.80;44.40;;;;;;5430405;26;20018;-60
2024/04/22 11:47:29;;;;;;;28.17;24.27;;;22.80;44.40;;;;;;5434352;26;20490;-61
2024/04/22 11:49:55;;;;;;;30.90;24.67;;;22.80;44.40;;;;;;5434749;26;19994;-60
2024/04/22 11:52:21;;;;;;;29.70;24.17;;;22.80;44.40;;;;;;5427985;26;20451;-62
2024/04/22 11:54:47;;;;;;;31.20;25.05;;;22.80;44.40;;;;;;5439286;26;20007;-61
2024/04/22 11:57:12;;;;;;;31.45;24.40;;;22.80;44.40;;;;;;5429519;26;20036;-60
2024/04/22 11:59:38;;;;;;;29.42;23.60;;;22.80;44.40;;;;;;5427310;26;20074;-60
2024/04/22 12:02:04;;;;;;;29.48;23.23;;;22.80;44.40;;;;;;5429028;26;20052;-61
2024/04/22 12:04:30;;;;;;;30.23;23.67;;;22.80;44.40;;;;;;5426264;26;20463;-60
2024/04/22 12:06:55;;;;;;;26.25;22.23;;;22.80;44.40;;;;;;5427843;26;20480;-62
2024/04/22 12:09:21;;;;;;;28.20;22.05;;;22.80;44.40;;;;;;5426232;26;20017;-61
2024/04/22 12:11:47;;;;;;;26.70;20.77;;;22.80;44.30;;;;;;5427863;26;20046;-63
2024/04/22 12:14:13;;;;;;;24.00;20.10;;;22.80;44.40;;;;;;5429329;26;20003;-63
2024/04/22 12:16:39;;;;;;;26.73;20.63;;;22.80;44.40;;;;;;5428955;26;20014;-63
2024/04/22 12:19:04;;;;;;;25.52;21.10;;;22.80;44.40;;;;;;5432639;26;20030;-63
2024/04/22 12:21:30;;;;;;;26.10;20.10;;;22.80;44.40;;;;;;5428031;26;20337;-63
2024/04/22 12:23:55;;;;;;;26.65;20.17;;;22.80;44.40;;;;;;5426474;26;20015;-63
2024/04/22 12:26:21;;;;;;;24.65;20.45;;;22.90;44.40;;;;;;5430404;26;20076;-63
2024/04/22 12:28:47;;;;;;;23.85;19.27;;;22.90;44.40;;;;;;5433821;26;20017;-63
2024/04/22 12:31:12;;;;;;;23.58;19.27;;;22.80;44.30;;;;;;5427729;26;20015;-63
2024/04/22 12:33:38;;;;;;;25.45;19.20;;;22.90;44.40;;;;;;5428232;26;20017;-63
2024/04/22 12:36:04;;;;;;;22.50;18.15;;;22.90;44.40;;;;;;5432087;26;20332;-63
2024/04/22 12:38:29;;;;;;;23.35;18.38;;;22.90;44.40;;;;;;5427892;26;20010;-63
2024/04/22 12:40:55;;;;;;;22.67;18.08;;;22.90;44.50;;;;;;5428333;26;20439;-63
2024/04/22 12:43:21;;;;;;;24.77;19.17;;;22.90;44.40;;;;;;5430719;26;20010;-63